CheckWX is a tool to help pilots better visualize weather data.  It is not intended as a substitute for an official pre-flight weather briefing.

05:12:06 UTC

EKBI TAF
Billund Airport
Billund, Denmark
TAF EKBI 252308Z 2600/2624 10008KT CAVOK

Aug-26@
00:00 UTC

Aug-26 @ 00:00 UTC

Aug-27@
00:00 UTC

Aug-27 @ 00:00 UTC

TAF EKBI 252308Z 2600/2624 10008KT CAVOK
Wind
  • 100° at 8 KTS
Conditions
No significant weather
Cloud Levels
  • No significant clouds